sensor_id;sensor_type;location;lat;lon;timestamp;P1;durP1;ratioP1;P2;durP2;ratioP2
4519;SDS011;2272;49.226;8.108;2022-09-29T00:00:11;2.87;;;2.77;;
4519;SDS011;2272;49.226;8.108;2022-09-29T00:02:38;6.80;;;2.93;;
4519;SDS011;2272;49.226;8.108;2022-09-29T00:05:07;3.57;;;3.00;;
4519;SDS011;2272;49.226;8.108;2022-09-29T00:07:34;3.70;;;3.43;;
4519;SDS011;2272;49.226;8.108;2022-09-29T00:10:00;11.43;;;3.30;;
4519;SDS011;2272;49.226;8.108;2022-09-29T00:12:28;5.30;;;3.23;;
4519;SDS011;2272;49.226;8.108;2022-09-29T00:14:55;3.53;;;3.23;;
4519;SDS011;2272;49.226;8.108;2022-09-29T00:17:22;3.03;;;2.83;;
4519;SDS011;2272;49.226;8.108;2022-09-29T00:19:49;3.20;;;3.00;;
4519;SDS011;2272;49.226;8.108;2022-09-29T00:22:17;4.03;;;3.63;;
4519;SDS011;2272;49.226;8.108;2022-09-29T00:24:45;4.63;;;4.23;;
4519;SDS011;2272;49.226;8.108;2022-09-29T00:27:13;4.80;;;4.17;;
4519;SDS011;2272;49.226;8.108;2022-09-29T00:29:40;5.90;;;3.40;;
4519;SDS011;2272;49.226;8.108;2022-09-29T00:32:06;5.10;;;3.40;;
4519;SDS011;2272;49.226;8.108;2022-09-29T00:34:33;4.80;;;2.90;;
4519;SDS011;2272;49.226;8.108;2022-09-29T00:37:00;3.10;;;2.80;;
4519;SDS011;2272;49.226;8.108;2022-09-29T00:39:28;3.80;;;3.60;;
4519;SDS011;2272;49.226;8.108;2022-09-29T00:41:55;5.97;;;3.70;;
4519;SDS011;2272;49.226;8.108;2022-09-29T00:47:26;3.23;;;2.93;;
4519;SDS011;2272;49.226;8.108;2022-09-29T00:49:55;4.50;;;3.00;;
4519;SDS011;2272;49.226;8.108;2022-09-29T00:52:28;5.17;;;3.23;;
4519;SDS011;2272;49.226;8.108;2022-09-29T00:54:59;7.10;;;3.97;;
4519;SDS011;2272;49.226;8.108;2022-09-29T00:57:30;4.30;;;3.20;;
4519;SDS011;2272;49.226;8.108;2022-09-29T01:00:01;5.20;;;3.77;;
4519;SDS011;2272;49.226;8.108;2022-09-29T01:02:31;3.37;;;3.17;;
4519;SDS011;2272;49.226;8.108;2022-09-29T01:05:00;3.83;;;3.20;;
4519;SDS011;2272;49.226;8.108;2022-09-29T01:07:31;3.77;;;3.47;;
4519;SDS011;2272;49.226;8.108;2022-09-29T01:10:00;5.37;;;3.70;;
4519;SDS011;2272;49.226;8.108;2022-09-29T01:12:28;4.60;;;3.10;;
4519;SDS011;2272;49.226;8.108;2022-09-29T01:14:55;3.43;;;3.23;;
4519;SDS011;2272;49.226;8.108;2022-09-29T01:17:22;5.83;;;4.17;;
4519;SDS011;2272;49.226;8.108;2022-09-29T01:19:50;8.83;;;4.03;;
4519;SDS011;2272;49.226;8.108;2022-09-29T01:22:31;3.30;;;3.10;;
4519;SDS011;2272;49.226;8.108;2022-09-29T01:25:28;4.70;;;3.30;;
4519;SDS011;2272;49.226;8.108;2022-09-29T01:28:16;3.33;;;3.13;;
4519;SDS011;2272;49.226;8.108;2022-09-29T01:30:54;4.50;;;3.00;;
4519;SDS011;2272;49.226;8.108;2022-09-29T01:33:37;8.33;;;3.60;;
4519;SDS011;2272;49.226;8.108;2022-09-29T01:36:10;3.97;;;3.67;;
4519;SDS011;2272;49.226;8.108;2022-09-29T01:38:50;3.30;;;3.10;;
4519;SDS011;2272;49.226;8.108;2022-09-29T01:41:26;4.90;;;3.50;;
4519;SDS011;2272;49.226;8.108;2022-09-29T01:43:58;4.43;;;4.03;;
4519;SDS011;2272;49.226;8.108;2022-09-29T01:46:32;4.27;;;3.30;;
4519;SDS011;2272;49.226;8.108;2022-09-29T01:49:03;2.83;;;2.63;;
4519;SDS011;2272;49.226;8.108;2022-09-29T01:51:31;4.50;;;3.00;;
4519;SDS011;2272;49.226;8.108;2022-09-29T01:54:03;6.97;;;3.90;;
4519;SDS011;2272;49.226;8.108;2022-09-29T01:56:35;3.70;;;3.43;;
4519;SDS011;2272;49.226;8.108;2022-09-29T01:59:08;8.87;;;3.23;;
4519;SDS011;2272;49.226;8.108;2022-09-29T02:01:42;21.03;;;3.83;;
4519;SDS011;2272;49.226;8.108;2022-09-29T02:04:13;6.00;;;3.50;;
4519;SDS011;2272;49.226;8.108;2022-09-29T02:06:45;4.83;;;2.67;;
4519;SDS011;2272;49.226;8.108;2022-09-29T02:09:19;4.77;;;3.50;;
4519;SDS011;2272;49.226;8.108;2022-09-29T02:11:51;5.63;;;3.43;;
4519;SDS011;2272;49.226;8.108;2022-09-29T02:14:19;4.20;;;3.80;;
4519;SDS011;2272;49.226;8.108;2022-09-29T02:16:53;6.80;;;2.90;;
4519;SDS011;2272;49.226;8.108;2022-09-29T02:19:24;3.50;;;3.20;;
4519;SDS011;2272;49.226;8.108;2022-09-29T02:21:54;7.20;;;3.20;;
4519;SDS011;2272;49.226;8.108;2022-09-29T02:24:21;24.27;;;3.20;;
4519;SDS011;2272;49.226;8.108;2022-09-29T02:26:49;4.23;;;2.70;;
4519;SDS011;2272;49.226;8.108;2022-09-29T02:29:16;4.67;;;3.70;;
4519;SDS011;2272;49.226;8.108;2022-09-29T02:31:44;5.70;;;3.43;;
4519;SDS011;2272;49.226;8.108;2022-09-29T02:34:13;3.13;;;2.90;;
4519;SDS011;2272;49.226;8.108;2022-09-29T02:36:45;3.40;;;3.10;;
4519;SDS011;2272;49.226;8.108;2022-09-29T02:39:25;10.27;;;3.50;;
4519;SDS011;2272;49.226;8.108;2022-09-29T02:42:00;5.90;;;3.20;;
4519;SDS011;2272;49.226;8.108;2022-09-29T02:44:42;11.33;;;3.47;;
4519;SDS011;2272;49.226;8.108;2022-09-29T02:47:29;7.33;;;3.40;;
4519;SDS011;2272;49.226;8.108;2022-09-29T02:50:18;4.67;;;3.00;;
4519;SDS011;2272;49.226;8.108;2022-09-29T02:53:01;6.53;;;3.60;;
4519;SDS011;2272;49.226;8.108;2022-09-29T02:55:34;4.47;;;3.00;;
4519;SDS011;2272;49.226;8.108;2022-09-29T02:58:06;4.43;;;2.93;;
4519;SDS011;2272;49.226;8.108;2022-09-29T03:00:39;3.93;;;2.87;;
4519;SDS011;2272;49.226;8.108;2022-09-29T03:03:08;5.13;;;2.90;;
4519;SDS011;2272;49.226;8.108;2022-09-29T03:05:36;6.77;;;3.17;;
4519;SDS011;2272;49.226;8.108;2022-09-29T03:08:03;5.90;;;3.17;;
4519;SDS011;2272;49.226;8.108;2022-09-29T03:10:30;2.70;;;2.33;;
4519;SDS011;2272;49.226;8.108;2022-09-29T03:12:56;8.10;;;3.70;;
4519;SDS011;2272;49.226;8.108;2022-09-29T03:15:23;3.23;;;2.80;;
4519;SDS011;2272;49.226;8.108;2022-09-29T03:17:53;3.27;;;2.90;;
4519;SDS011;2272;49.226;8.108;2022-09-29T03:20:21;5.70;;;2.70;;
4519;SDS011;2272;49.226;8.108;2022-09-29T03:22:49;8.07;;;2.50;;
4519;SDS011;2272;49.226;8.108;2022-09-29T03:25:16;3.83;;;2.77;;
4519;SDS011;2272;49.226;8.108;2022-09-29T03:27:43;2.17;;;2.17;;
4519;SDS011;2272;49.226;8.108;2022-09-29T03:30:10;2.90;;;2.57;;
4519;SDS011;2272;49.226;8.108;2022-09-29T03:32:38;9.17;;;2.60;;
4519;SDS011;2272;49.226;8.108;2022-09-29T03:35:05;5.83;;;2.67;;
4519;SDS011;2272;49.226;8.108;2022-09-29T03:37:32;3.10;;;2.70;;
4519;SDS011;2272;49.226;8.108;2022-09-29T03:40:01;10.50;;;3.13;;
4519;SDS011;2272;49.226;8.108;2022-09-29T03:42:28;2.57;;;2.47;;
4519;SDS011;2272;49.226;8.108;2022-09-29T03:44:54;2.47;;;2.37;;
4519;SDS011;2272;49.226;8.108;2022-09-29T03:47:21;3.43;;;2.70;;
4519;SDS011;2272;49.226;8.108;2022-09-29T03:49:48;4.23;;;3.00;;
4519;SDS011;2272;49.226;8.108;2022-09-29T03:52:15;10.47;;;2.80;;
4519;SDS011;2272;49.226;8.108;2022-09-29T03:54:41;3.23;;;2.60;;
4519;SDS011;2272;49.226;8.108;2022-09-29T03:57:09;6.10;;;2.80;;
4519;SDS011;2272;49.226;8.108;2022-09-29T03:59:36;3.80;;;2.80;;
4519;SDS011;2272;49.226;8.108;2022-09-29T04:02:03;3.60;;;2.93;;
4519;SDS011;2272;49.226;8.108;2022-09-29T04:04:29;12.73;;;2.97;;
4519;SDS011;2272;49.226;8.108;2022-09-29T04:06:56;2.70;;;2.50;;
4519;SDS011;2272;49.226;8.108;2022-09-29T04:09:23;6.13;;;3.20;;
4519;SDS011;2272;49.226;8.108;2022-09-29T04:11:49;3.70;;;2.73;;
4519;SDS011;2272;49.226;8.108;2022-09-29T04:14:17;2.80;;;2.60;;
4519;SDS011;2272;49.226;8.108;2022-09-29T04:16:44;2.63;;;2.37;;
4519;SDS011;2272;49.226;8.108;2022-09-29T04:19:11;2.70;;;2.60;;
4519;SDS011;2272;49.226;8.108;2022-09-29T04:21:38;5.80;;;3.20;;
4519;SDS011;2272;49.226;8.108;2022-09-29T04:24:04;2.83;;;2.47;;
4519;SDS011;2272;49.226;8.108;2022-09-29T04:26:31;3.10;;;2.83;;
4519;SDS011;2272;49.226;8.108;2022-09-29T04:28:58;1.90;;;1.90;;
4519;SDS011;2272;49.226;8.108;2022-09-29T04:31:26;2.93;;;2.73;;
4519;SDS011;2272;49.226;8.108;2022-09-29T04:33:52;6.00;;;2.80;;
4519;SDS011;2272;49.226;8.108;2022-09-29T04:36:19;3.73;;;2.53;;
4519;SDS011;2272;49.226;8.108;2022-09-29T04:38:46;2.90;;;2.47;;
4519;SDS011;2272;49.226;8.108;2022-09-29T04:41:14;2.30;;;2.20;;
4519;SDS011;2272;49.226;8.108;2022-09-29T04:43:41;3.40;;;2.60;;
4519;SDS011;2272;49.226;8.108;2022-09-29T04:46:08;4.80;;;3.80;;
4519;SDS011;2272;49.226;8.108;2022-09-29T04:48:37;15.30;;;6.10;;
4519;SDS011;2272;49.226;8.108;2022-09-29T04:51:04;4.43;;;3.50;;
4519;SDS011;2272;49.226;8.108;2022-09-29T04:53:32;7.10;;;3.53;;
4519;SDS011;2272;49.226;8.108;2022-09-29T04:56:03;2.93;;;2.73;;
4519;SDS011;2272;49.226;8.108;2022-09-29T04:58:30;6.83;;;2.90;;
4519;SDS011;2272;49.226;8.108;2022-09-29T05:01:03;2.43;;;2.20;;
4519;SDS011;2272;49.226;8.108;2022-09-29T05:03:30;3.47;;;3.17;;
4519;SDS011;2272;49.226;8.108;2022-09-29T05:05:58;3.90;;;3.50;;
4519;SDS011;2272;49.226;8.108;2022-09-29T05:08:25;5.60;;;3.20;;
4519;SDS011;2272;49.226;8.108;2022-09-29T05:10:52;3.50;;;3.03;;
4519;SDS011;2272;49.226;8.108;2022-09-29T05:13:18;5.67;;;2.90;;
4519;SDS011;2272;49.226;8.108;2022-09-29T05:15:45;3.73;;;2.90;;
4519;SDS011;2272;49.226;8.108;2022-09-29T05:18:12;6.90;;;2.87;;
4519;SDS011;2272;49.226;8.108;2022-09-29T05:20:38;3.77;;;3.20;;
4519;SDS011;2272;49.226;8.108;2022-09-29T05:23:06;9.90;;;2.80;;
4519;SDS011;2272;49.226;8.108;2022-09-29T05:25:34;2.87;;;2.77;;
4519;SDS011;2272;49.226;8.108;2022-09-29T05:28:01;9.47;;;3.37;;
4519;SDS011;2272;49.226;8.108;2022-09-29T05:30:28;3.03;;;2.83;;
4519;SDS011;2272;49.226;8.108;2022-09-29T05:32:55;6.43;;;3.97;;
4519;SDS011;2272;49.226;8.108;2022-09-29T05:35:21;6.10;;;3.23;;
4519;SDS011;2272;49.226;8.108;2022-09-29T05:37:48;4.10;;;3.67;;
4519;SDS011;2272;49.226;8.108;2022-09-29T05:40:17;2.87;;;2.67;;
4519;SDS011;2272;49.226;8.108;2022-09-29T05:42:44;3.17;;;2.93;;
4519;SDS011;2272;49.226;8.108;2022-09-29T05:45:11;8.47;;;3.57;;
4519;SDS011;2272;49.226;8.108;2022-09-29T05:47:40;7.73;;;3.73;;
4519;SDS011;2272;49.226;8.108;2022-09-29T05:50:08;5.53;;;3.13;;
4519;SDS011;2272;49.226;8.108;2022-09-29T05:52:35;4.93;;;2.93;;
4519;SDS011;2272;49.226;8.108;2022-09-29T05:55:02;2.97;;;2.77;;
4519;SDS011;2272;49.226;8.108;2022-09-29T05:57:31;3.37;;;2.90;;
4519;SDS011;2272;49.226;8.108;2022-09-29T05:59:57;2.90;;;2.80;;
4519;SDS011;2272;49.226;8.108;2022-09-29T06:02:24;3.13;;;2.87;;
4519;SDS011;2272;49.226;8.108;2022-09-29T06:04:51;3.50;;;3.20;;
4519;SDS011;2272;49.226;8.108;2022-09-29T06:07:17;3.63;;;3.33;;
4519;SDS011;2272;49.226;8.108;2022-09-29T06:09:44;12.27;;;3.57;;
4519;SDS011;2272;49.226;8.108;2022-09-29T06:12:11;7.87;;;3.17;;
4519;SDS011;2272;49.226;8.108;2022-09-29T06:14:39;2.50;;;2.40;;
4519;SDS011;2272;49.226;8.108;2022-09-29T06:17:06;2.87;;;2.67;;
4519;SDS011;2272;49.226;8.108;2022-09-29T06:19:33;3.13;;;2.93;;
4519;SDS011;2272;49.226;8.108;2022-09-29T06:22:00;3.30;;;2.63;;
4519;SDS011;2272;49.226;8.108;2022-09-29T06:24:26;5.77;;;2.93;;
4519;SDS011;2272;49.226;8.108;2022-09-29T06:26:53;5.40;;;3.60;;
4519;SDS011;2272;49.226;8.108;2022-09-29T06:29:20;3.27;;;2.73;;
4519;SDS011;2272;49.226;8.108;2022-09-29T06:31:48;3.63;;;2.47;;
4519;SDS011;2272;49.226;8.108;2022-09-29T06:34:15;2.83;;;2.63;;
4519;SDS011;2272;49.226;8.108;2022-09-29T06:36:42;2.27;;;2.07;;
4519;SDS011;2272;49.226;8.108;2022-09-29T06:39:27;3.30;;;2.40;;
4519;SDS011;2272;49.226;8.108;2022-09-29T06:41:57;24.17;;;5.23;;
4519;SDS011;2272;49.226;8.108;2022-09-29T06:44:24;5.50;;;4.00;;
4519;SDS011;2272;49.226;8.108;2022-09-29T06:46:53;4.93;;;2.93;;
4519;SDS011;2272;49.226;8.108;2022-09-29T06:49:20;2.60;;;2.50;;
4519;SDS011;2272;49.226;8.108;2022-09-29T06:51:48;10.60;;;3.00;;
4519;SDS011;2272;49.226;8.108;2022-09-29T06:54:15;4.10;;;3.23;;
4519;SDS011;2272;49.226;8.108;2022-09-29T06:56:45;12.70;;;4.40;;
4519;SDS011;2272;49.226;8.108;2022-09-29T06:59:12;4.30;;;2.50;;
4519;SDS011;2272;49.226;8.108;2022-09-29T07:01:39;3.13;;;2.83;;
4519;SDS011;2272;49.226;8.108;2022-09-29T07:04:07;4.53;;;2.73;;
4519;SDS011;2272;49.226;8.108;2022-09-29T07:06:34;3.50;;;3.20;;
4519;SDS011;2272;49.226;8.108;2022-09-29T07:09:00;3.10;;;2.90;;
4519;SDS011;2272;49.226;8.108;2022-09-29T07:11:27;3.43;;;3.17;;
4519;SDS011;2272;49.226;8.108;2022-09-29T07:13:54;2.53;;;2.43;;
4519;SDS011;2272;49.226;8.108;2022-09-29T07:16:21;2.67;;;2.47;;
4519;SDS011;2272;49.226;8.108;2022-09-29T07:18:48;2.73;;;2.53;;
4519;SDS011;2272;49.226;8.108;2022-09-29T07:21:17;2.33;;;2.13;;
4519;SDS011;2272;49.226;8.108;2022-09-29T07:23:45;3.03;;;2.83;;
4519;SDS011;2272;49.226;8.108;2022-09-29T07:26:13;4.60;;;3.33;;
4519;SDS011;2272;49.226;8.108;2022-09-29T07:28:40;3.07;;;2.87;;
4519;SDS011;2272;49.226;8.108;2022-09-29T07:31:08;3.43;;;2.90;;
4519;SDS011;2272;49.226;8.108;2022-09-29T07:33:36;3.90;;;2.83;;
4519;SDS011;2272;49.226;8.108;2022-09-29T07:36:03;3.20;;;3.00;;
4519;SDS011;2272;49.226;8.108;2022-09-29T07:38:32;5.13;;;3.40;;
4519;SDS011;2272;49.226;8.108;2022-09-29T07:40:59;5.93;;;2.90;;
4519;SDS011;2272;49.226;8.108;2022-09-29T07:43:26;5.40;;;3.30;;
4519;SDS011;2272;49.226;8.108;2022-09-29T07:45:53;7.83;;;3.70;;
4519;SDS011;2272;49.226;8.108;2022-09-29T07:48:20;5.37;;;4.07;;
4519;SDS011;2272;49.226;8.108;2022-09-29T07:50:47;10.50;;;3.27;;
4519;SDS011;2272;49.226;8.108;2022-09-29T07:53:14;7.80;;;4.77;;
4519;SDS011;2272;49.226;8.108;2022-09-29T07:55:42;6.77;;;3.47;;
4519;SDS011;2272;49.226;8.108;2022-09-29T07:58:09;5.97;;;3.50;;
4519;SDS011;2272;49.226;8.108;2022-09-29T08:00:35;3.37;;;3.13;;
4519;SDS011;2272;49.226;8.108;2022-09-29T08:03:02;5.63;;;3.20;;
4519;SDS011;2272;49.226;8.108;2022-09-29T08:05:30;3.40;;;3.10;;
4519;SDS011;2272;49.226;8.108;2022-09-29T08:07:58;3.80;;;3.50;;
4519;SDS011;2272;49.226;8.108;2022-09-29T08:10:25;3.80;;;3.23;;
4519;SDS011;2272;49.226;8.108;2022-09-29T08:12:53;2.80;;;2.60;;
4519;SDS011;2272;49.226;8.108;2022-09-29T08:15:21;3.07;;;2.90;;
4519;SDS011;2272;49.226;8.108;2022-09-29T08:17:48;5.03;;;3.20;;
4519;SDS011;2272;49.226;8.108;2022-09-29T08:20:17;2.77;;;2.57;;
4519;SDS011;2272;49.226;8.108;2022-09-29T08:22:44;2.80;;;2.57;;
4519;SDS011;2272;49.226;8.108;2022-09-29T08:25:12;11.40;;;6.20;;
4519;SDS011;2272;49.226;8.108;2022-09-29T08:27:39;7.47;;;5.67;;
4519;SDS011;2272;49.226;8.108;2022-09-29T08:30:08;6.00;;;5.13;;
4519;SDS011;2272;49.226;8.108;2022-09-29T08:32:35;9.17;;;4.67;;
4519;SDS011;2272;49.226;8.108;2022-09-29T08:35:03;4.67;;;3.97;;
4519;SDS011;2272;49.226;8.108;2022-09-29T08:37:30;14.73;;;4.93;;
4519;SDS011;2272;49.226;8.108;2022-09-29T08:39:57;11.47;;;2.60;;
4519;SDS011;2272;49.226;8.108;2022-09-29T08:42:25;3.20;;;2.90;;
4519;SDS011;2272;49.226;8.108;2022-09-29T08:45:01;6.87;;;2.90;;
4519;SDS011;2272;49.226;8.108;2022-09-29T08:47:34;3.60;;;3.30;;
4519;SDS011;2272;49.226;8.108;2022-09-29T08:50:05;7.47;;;3.53;;
4519;SDS011;2272;49.226;8.108;2022-09-29T08:52:41;6.63;;;3.13;;
4519;SDS011;2272;49.226;8.108;2022-09-29T08:55:20;8.83;;;3.47;;
4519;SDS011;2272;49.226;8.108;2022-09-29T08:57:54;5.73;;;3.33;;
4519;SDS011;2272;49.226;8.108;2022-09-29T09:00:25;17.13;;;3.80;;
4519;SDS011;2272;49.226;8.108;2022-09-29T09:03:07;6.97;;;3.43;;
4519;SDS011;2272;49.226;8.108;2022-09-29T09:05:46;6.47;;;3.83;;
4519;SDS011;2272;49.226;8.108;2022-09-29T09:08:22;4.07;;;3.67;;
4519;SDS011;2272;49.226;8.108;2022-09-29T09:11:00;5.13;;;4.20;;
4519;SDS011;2272;49.226;8.108;2022-09-29T09:13:44;13.77;;;3.73;;
4519;SDS011;2272;49.226;8.108;2022-09-29T09:16:24;8.37;;;4.23;;
4519;SDS011;2272;49.226;8.108;2022-09-29T09:19:08;3.40;;;3.20;;
4519;SDS011;2272;49.226;8.108;2022-09-29T09:22:01;5.17;;;4.47;;
4519;SDS011;2272;49.226;8.108;2022-09-29T09:24:37;3.47;;;3.17;;
4519;SDS011;2272;49.226;8.108;2022-09-29T09:27:11;6.20;;;3.60;;
4519;SDS011;2272;49.226;8.108;2022-09-29T09:29:42;6.90;;;4.10;;
4519;SDS011;2272;49.226;8.108;2022-09-29T09:32:10;7.50;;;4.20;;
4519;SDS011;2272;49.226;8.108;2022-09-29T09:34:42;6.93;;;4.33;;
4519;SDS011;2272;49.226;8.108;2022-09-29T09:37:15;4.20;;;3.70;;
4519;SDS011;2272;49.226;8.108;2022-09-29T09:39:46;4.70;;;4.30;;
4519;SDS011;2272;49.226;8.108;2022-09-29T09:42:21;4.87;;;4.40;;
4519;SDS011;2272;49.226;8.108;2022-09-29T09:44:52;4.10;;;3.73;;
4519;SDS011;2272;49.226;8.108;2022-09-29T09:47:24;4.30;;;4.00;;
4519;SDS011;2272;49.226;8.108;2022-09-29T09:49:56;4.70;;;4.30;;
4519;SDS011;2272;49.226;8.108;2022-09-29T09:52:26;9.67;;;4.17;;
4519;SDS011;2272;49.226;8.108;2022-09-29T09:54:58;5.17;;;3.80;;
4519;SDS011;2272;49.226;8.108;2022-09-29T09:57:40;6.13;;;4.63;;
4519;SDS011;2272;49.226;8.108;2022-09-29T10:00:18;5.60;;;3.60;;
4519;SDS011;2272;49.226;8.108;2022-09-29T10:02:49;7.23;;;4.30;;
4519;SDS011;2272;49.226;8.108;2022-09-29T10:05:18;5.60;;;3.90;;
4519;SDS011;2272;49.226;8.108;2022-09-29T10:07:48;4.20;;;3.30;;
4519;SDS011;2272;49.226;8.108;2022-09-29T10:10:16;5.60;;;4.70;;
4519;SDS011;2272;49.226;8.108;2022-09-29T10:12:44;7.03;;;4.50;;
4519;SDS011;2272;49.226;8.108;2022-09-29T10:15:14;4.07;;;3.60;;
4519;SDS011;2272;49.226;8.108;2022-09-29T10:17:45;6.80;;;5.30;;
4519;SDS011;2272;49.226;8.108;2022-09-29T10:20:27;8.53;;;4.50;;
4519;SDS011;2272;49.226;8.108;2022-09-29T10:23:04;5.30;;;4.90;;
4519;SDS011;2272;49.226;8.108;2022-09-29T10:25:49;7.57;;;3.70;;
4519;SDS011;2272;49.226;8.108;2022-09-29T10:28:18;4.77;;;4.20;;
4519;SDS011;2272;49.226;8.108;2022-09-29T10:30:45;6.20;;;4.20;;
4519;SDS011;2272;49.226;8.108;2022-09-29T10:33:13;3.83;;;3.53;;
4519;SDS011;2272;49.226;8.108;2022-09-29T10:35:43;11.40;;;5.30;;
4519;SDS011;2272;49.226;8.108;2022-09-29T10:38:15;4.97;;;4.47;;
4519;SDS011;2272;49.226;8.108;2022-09-29T10:40:53;6.13;;;5.20;;
4519;SDS011;2272;49.226;8.108;2022-09-29T10:43:23;6.00;;;4.37;;
4519;SDS011;2272;49.226;8.108;2022-09-29T10:45:51;18.03;;;5.00;;
4519;SDS011;2272;49.226;8.108;2022-09-29T10:48:22;6.93;;;5.13;;
4519;SDS011;2272;49.226;8.108;2022-09-29T10:50:52;7.27;;;5.03;;
4519;SDS011;2272;49.226;8.108;2022-09-29T10:53:23;11.27;;;6.20;;
4519;SDS011;2272;49.226;8.108;2022-09-29T10:55:58;9.90;;;5.90;;
4519;SDS011;2272;49.226;8.108;2022-09-29T10:58:36;10.50;;;5.90;;
4519;SDS011;2272;49.226;8.108;2022-09-29T11:01:07;11.00;;;8.07;;
4519;SDS011;2272;49.226;8.108;2022-09-29T11:03:36;7.67;;;5.30;;
4519;SDS011;2272;49.226;8.108;2022-09-29T11:06:07;7.60;;;5.70;;
4519;SDS011;2272;49.226;8.108;2022-09-29T11:11:22;14.43;;;5.53;;
4519;SDS011;2272;49.226;8.108;2022-09-29T11:13:51;5.87;;;5.30;;
4519;SDS011;2272;49.226;8.108;2022-09-29T11:16:18;5.87;;;4.43;;
4519;SDS011;2272;49.226;8.108;2022-09-29T11:18:54;8.60;;;5.93;;
4519;SDS011;2272;49.226;8.108;2022-09-29T11:21:40;6.10;;;4.50;;
4519;SDS011;2272;49.226;8.108;2022-09-29T11:24:21;3.93;;;3.70;;
4519;SDS011;2272;49.226;8.108;2022-09-29T11:26:58;3.70;;;2.97;;
4519;SDS011;2272;49.226;8.108;2022-09-29T11:29:35;6.77;;;4.43;;
4519;SDS011;2272;49.226;8.108;2022-09-29T11:32:14;6.00;;;3.13;;
4519;SDS011;2272;49.226;8.108;2022-09-29T11:34:54;6.17;;;3.23;;
4519;SDS011;2272;49.226;8.108;2022-09-29T11:37:34;3.90;;;2.60;;
4519;SDS011;2272;49.226;8.108;2022-09-29T11:40:10;5.97;;;4.30;;
4519;SDS011;2272;49.226;8.108;2022-09-29T11:42:51;7.40;;;5.03;;
4519;SDS011;2272;49.226;8.108;2022-09-29T11:45:30;3.97;;;3.57;;
4519;SDS011;2272;49.226;8.108;2022-09-29T11:48:12;3.77;;;3.40;;
4519;SDS011;2272;49.226;8.108;2022-09-29T11:51:00;6.40;;;3.20;;
4519;SDS011;2272;49.226;8.108;2022-09-29T11:53:42;9.10;;;3.83;;
4519;SDS011;2272;49.226;8.108;2022-09-29T11:56:27;4.53;;;3.10;;
4519;SDS011;2272;49.226;8.108;2022-09-29T11:59:04;4.90;;;3.90;;
4519;SDS011;2272;49.226;8.108;2022-09-29T12:01:46;3.73;;;3.33;;
4519;SDS011;2272;49.226;8.108;2022-09-29T12:04:26;20.87;;;3.10;;
4519;SDS011;2272;49.226;8.108;2022-09-29T12:07:03;6.00;;;2.93;;
4519;SDS011;2272;49.226;8.108;2022-09-29T12:12:43;2.10;;;1.90;;
4519;SDS011;2272;49.226;8.108;2022-09-29T12:15:21;5.13;;;2.80;;
4519;SDS011;2272;49.226;8.108;2022-09-29T12:17:58;4.43;;;2.83;;
4519;SDS011;2272;49.226;8.108;2022-09-29T12:20:28;3.33;;;2.70;;
4519;SDS011;2272;49.226;8.108;2022-09-29T12:22:59;3.00;;;2.43;;
4519;SDS011;2272;49.226;8.108;2022-09-29T12:25:39;5.07;;;2.77;;
4519;SDS011;2272;49.226;8.108;2022-09-29T12:28:14;3.50;;;2.60;;
4519;SDS011;2272;49.226;8.108;2022-09-29T12:30:46;8.37;;;3.20;;
4519;SDS011;2272;49.226;8.108;2022-09-29T12:33:18;11.20;;;4.60;;
4519;SDS011;2272;49.226;8.108;2022-09-29T12:35:47;5.43;;;4.40;;
4519;SDS011;2272;49.226;8.108;2022-09-29T12:38:21;5.80;;;3.23;;
4519;SDS011;2272;49.226;8.108;2022-09-29T12:40:57;7.13;;;4.20;;
4519;SDS011;2272;49.226;8.108;2022-09-29T12:43:31;3.03;;;2.43;;
4519;SDS011;2272;49.226;8.108;2022-09-29T12:46:08;3.70;;;2.27;;
4519;SDS011;2272;49.226;8.108;2022-09-29T12:48:43;7.10;;;2.33;;
4519;SDS011;2272;49.226;8.108;2022-09-29T12:51:17;5.10;;;2.57;;
4519;SDS011;2272;49.226;8.108;2022-09-29T12:53:52;14.63;;;3.10;;
4519;SDS011;2272;49.226;8.108;2022-09-29T12:56:27;5.27;;;2.63;;
4519;SDS011;2272;49.226;8.108;2022-09-29T12:59:01;3.07;;;2.40;;
4519;SDS011;2272;49.226;8.108;2022-09-29T13:01:34;3.80;;;3.43;;
4519;SDS011;2272;49.226;8.108;2022-09-29T13:04:12;4.50;;;3.33;;
4519;SDS011;2272;49.226;8.108;2022-09-29T13:10:27;2.97;;;2.60;;
4519;SDS011;2272;49.226;8.108;2022-09-29T13:13:20;3.47;;;2.57;;
4519;SDS011;2272;49.226;8.108;2022-09-29T13:16:12;3.30;;;3.00;;
4519;SDS011;2272;49.226;8.108;2022-09-29T13:18:59;4.60;;;2.60;;
4519;SDS011;2272;49.226;8.108;2022-09-29T13:21:42;4.73;;;2.80;;
4519;SDS011;2272;49.226;8.108;2022-09-29T13:24:27;2.93;;;2.13;;
4519;SDS011;2272;49.226;8.108;2022-09-29T13:27:12;2.57;;;2.33;;
4519;SDS011;2272;49.226;8.108;2022-09-29T13:29:56;10.47;;;2.73;;
4519;SDS011;2272;49.226;8.108;2022-09-29T13:32:27;6.30;;;2.87;;
4519;SDS011;2272;49.226;8.108;2022-09-29T13:34:57;6.47;;;3.97;;
4519;SDS011;2272;49.226;8.108;2022-09-29T13:37:27;20.33;;;3.30;;
4519;SDS011;2272;49.226;8.108;2022-09-29T13:40:08;6.33;;;3.40;;
4519;SDS011;2272;49.226;8.108;2022-09-29T13:42:48;8.23;;;3.13;;
4519;SDS011;2272;49.226;8.108;2022-09-29T13:51:20;2.93;;;1.90;;
4519;SDS011;2272;49.226;8.108;2022-09-29T13:54:25;2.80;;;2.23;;
4519;SDS011;2272;49.226;8.108;2022-09-29T13:57:04;3.13;;;2.57;;
4519;SDS011;2272;49.226;8.108;2022-09-29T14:02:47;5.90;;;2.73;;
4519;SDS011;2272;49.226;8.108;2022-09-29T14:05:43;5.50;;;2.40;;
4519;SDS011;2272;49.226;8.108;2022-09-29T14:08:13;2.57;;;2.43;;
4519;SDS011;2272;49.226;8.108;2022-09-29T14:10:45;7.37;;;2.90;;
4519;SDS011;2272;49.226;8.108;2022-09-29T14:13:16;3.00;;;2.60;;
4519;SDS011;2272;49.226;8.108;2022-09-29T14:15:51;2.73;;;2.10;;
4519;SDS011;2272;49.226;8.108;2022-09-29T14:18:30;2.73;;;2.23;;
4519;SDS011;2272;49.226;8.108;2022-09-29T14:21:02;4.93;;;2.30;;
4519;SDS011;2272;49.226;8.108;2022-09-29T14:23:46;4.30;;;2.33;;
4519;SDS011;2272;49.226;8.108;2022-09-29T14:29:10;5.10;;;4.13;;
4519;SDS011;2272;49.226;8.108;2022-09-29T14:31:43;2.90;;;2.70;;
4519;SDS011;2272;49.226;8.108;2022-09-29T14:34:13;7.10;;;2.80;;
4519;SDS011;2272;49.226;8.108;2022-09-29T14:36:41;3.10;;;2.80;;
4519;SDS011;2272;49.226;8.108;2022-09-29T14:39:11;4.10;;;2.47;;
4519;SDS011;2272;49.226;8.108;2022-09-29T14:41:40;2.87;;;2.67;;
4519;SDS011;2272;49.226;8.108;2022-09-29T14:44:08;3.77;;;2.37;;
4519;SDS011;2272;49.226;8.108;2022-09-29T14:46:50;2.60;;;1.53;;
4519;SDS011;2272;49.226;8.108;2022-09-29T14:49:55;5.43;;;2.20;;
4519;SDS011;2272;49.226;8.108;2022-09-29T14:53:11;3.50;;;2.20;;
4519;SDS011;2272;49.226;8.108;2022-09-29T14:55:50;2.80;;;2.50;;
4519;SDS011;2272;49.226;8.108;2022-09-29T14:58:31;1.93;;;1.80;;
4519;SDS011;2272;49.226;8.108;2022-09-29T15:01:08;2.40;;;2.20;;
4519;SDS011;2272;49.226;8.108;2022-09-29T15:03:43;4.67;;;3.27;;
4519;SDS011;2272;49.226;8.108;2022-09-29T15:06:13;5.40;;;3.33;;
4519;SDS011;2272;49.226;8.108;2022-09-29T15:08:44;8.10;;;3.17;;
4519;SDS011;2272;49.226;8.108;2022-09-29T15:11:25;4.27;;;2.90;;
4519;SDS011;2272;49.226;8.108;2022-09-29T15:13:54;3.50;;;3.20;;
4519;SDS011;2272;49.226;8.108;2022-09-29T15:16:25;2.80;;;2.60;;
4519;SDS011;2272;49.226;8.108;2022-09-29T15:19:07;7.63;;;3.60;;
4519;SDS011;2272;49.226;8.108;2022-09-29T15:21:52;6.60;;;3.13;;
4519;SDS011;2272;49.226;8.108;2022-09-29T15:24:35;5.33;;;3.87;;
4519;SDS011;2272;49.226;8.108;2022-09-29T15:27:18;3.50;;;2.87;;
4519;SDS011;2272;49.226;8.108;2022-09-29T15:29:48;6.20;;;2.97;;
4519;SDS011;2272;49.226;8.108;2022-09-29T15:32:20;5.63;;;3.27;;
4519;SDS011;2272;49.226;8.108;2022-09-29T15:34:49;7.40;;;4.33;;
4519;SDS011;2272;49.226;8.108;2022-09-29T15:37:21;15.67;;;8.60;;
4519;SDS011;2272;49.226;8.108;2022-09-29T15:39:49;44.13;;;20.27;;
4519;SDS011;2272;49.226;8.108;2022-09-29T15:42:18;28.00;;;18.57;;
4519;SDS011;2272;49.226;8.108;2022-09-29T15:44:50;10.30;;;7.83;;
4519;SDS011;2272;49.226;8.108;2022-09-29T15:47:26;8.97;;;3.67;;
4519;SDS011;2272;49.226;8.108;2022-09-29T15:49:54;9.00;;;4.90;;
4519;SDS011;2272;49.226;8.108;2022-09-29T15:52:23;9.60;;;7.80;;
4519;SDS011;2272;49.226;8.108;2022-09-29T15:54:53;8.20;;;7.00;;
4519;SDS011;2272;49.226;8.108;2022-09-29T15:57:29;9.50;;;7.30;;
4519;SDS011;2272;49.226;8.108;2022-09-29T16:06:30;5.00;;;3.93;;
4519;SDS011;2272;49.226;8.108;2022-09-29T16:09:01;16.37;;;5.80;;
4519;SDS011;2272;49.226;8.108;2022-09-29T16:11:30;5.10;;;4.70;;
4519;SDS011;2272;49.226;8.108;2022-09-29T16:14:00;10.37;;;6.10;;